createdAt,value
2022-12-03T00:00:00.905Z,20.88
2022-12-03T00:02:28.320Z,18.48
2022-12-03T00:04:55.828Z,20.85
2022-12-03T00:07:23.253Z,19.05
2022-12-03T00:09:50.652Z,19.33
2022-12-03T00:12:18.052Z,20.42
2022-12-03T00:14:45.332Z,20.42
2022-12-03T00:17:12.787Z,21.02
2022-12-03T00:19:40.061Z,18.50
2022-12-03T00:22:07.400Z,21.40
2022-12-03T00:24:34.835Z,21.73
2022-12-03T00:27:02.527Z,23.17
2022-12-03T00:29:29.728Z,17.55
2022-12-03T00:31:57.118Z,20.02
2022-12-03T00:34:24.356Z,22.42
2022-12-03T00:36:52.419Z,23.00
2022-12-03T00:39:19.766Z,22.98
2022-12-03T00:41:47.180Z,20.45
2022-12-03T00:44:14.617Z,20.98
2022-12-03T00:46:42.106Z,22.02
2022-12-03T00:49:09.617Z,21.30
2022-12-03T00:51:36.951Z,18.75
2022-12-03T00:54:04.302Z,20.98
2022-12-03T00:56:31.589Z,19.55
2022-12-03T00:58:58.782Z,21.98
2022-12-03T01:01:28.223Z,19.25
2022-12-03T01:03:57.863Z,18.52
2022-12-03T01:06:25.126Z,20.77
2022-12-03T01:08:52.639Z,17.08
2022-12-03T01:11:38.317Z,17.33
2022-12-03T01:14:10.063Z,18.80
2022-12-03T01:16:37.702Z,20.02
2022-12-03T01:19:05.947Z,19.80
2022-12-03T01:21:33.803Z,19.33
2022-12-03T01:24:01.225Z,21.65
2022-12-03T01:26:28.613Z,18.77
2022-12-03T01:28:56.010Z,20.65
2022-12-03T01:31:42.391Z,21.38
2022-12-03T01:34:10.060Z,18.23
2022-12-03T01:36:37.410Z,18.67
2022-12-03T01:39:04.906Z,19.13
2022-12-03T01:41:33.009Z,22.58
2022-12-03T01:44:00.717Z,20.80
2022-12-03T01:46:31.504Z,21.13
2022-12-03T01:48:59.359Z,22.70
2022-12-03T01:51:26.634Z,23.58
2022-12-03T01:53:54.023Z,19.88
2022-12-03T01:56:21.577Z,20.60
2022-12-03T01:58:49.155Z,20.63
2022-12-03T02:01:17.584Z,21.80
2022-12-03T02:03:45.616Z,20.02
2022-12-03T02:06:16.083Z,17.23
2022-12-03T02:08:43.750Z,19.10
2022-12-03T02:11:22.318Z,20.63
2022-12-03T02:13:50.797Z,22.15
2022-12-03T02:16:18.097Z,21.42
2022-12-03T02:18:45.585Z,20.15
2022-12-03T02:21:28.723Z,20.42
2022-12-03T02:24:05.624Z,18.58
2022-12-03T02:26:33.097Z,21.10
2022-12-03T02:29:00.495Z,21.35
2022-12-03T02:31:28.125Z,18.65
2022-12-03T02:33:55.436Z,21.15
2022-12-03T02:36:22.868Z,21.48
2022-12-03T02:38:50.542Z,20.42
2022-12-03T02:41:38.487Z,20.83
2022-12-03T02:44:07.082Z,20.65
2022-12-03T02:46:34.766Z,21.10
2022-12-03T02:49:02.650Z,21.30
2022-12-03T02:51:30.149Z,22.25
2022-12-03T02:53:57.851Z,21.13
2022-12-03T02:56:27.723Z,23.48
2022-12-03T02:58:57.086Z,23.88
2022-12-03T03:01:24.374Z,18.75
2022-12-03T03:03:52.342Z,24.42
2022-12-03T03:06:20.360Z,22.50
2022-12-03T03:08:47.726Z,23.60
2022-12-03T03:11:14.980Z,22.02
2022-12-03T03:13:42.446Z,24.17
2022-12-03T03:16:09.928Z,22.20
2022-12-03T03:18:37.657Z,23.20
2022-12-03T03:21:05.512Z,23.88
2022-12-03T03:23:32.900Z,22.10
2022-12-03T03:26:05.937Z,19.92
2022-12-03T03:28:35.336Z,23.90
2022-12-03T03:31:03.642Z,19.80
2022-12-03T03:33:30.994Z,26.00
2022-12-03T03:36:00.594Z,24.08
2022-12-03T03:38:29.233Z,26.92
2022-12-03T03:40:57.103Z,24.45
2022-12-03T03:43:24.754Z,24.02
2022-12-03T03:45:53.054Z,20.85
2022-12-03T03:48:21.372Z,22.83
2022-12-03T03:50:49.036Z,24.77
2022-12-03T03:53:17.368Z,23.63
2022-12-03T03:55:44.786Z,23.83
2022-12-03T03:58:12.401Z,22.85
2022-12-03T04:00:39.793Z,22.75
2022-12-03T04:03:07.262Z,21.70
2022-12-03T04:05:34.561Z,22.42
2022-12-03T04:08:01.889Z,21.13
2022-12-03T04:10:48.149Z,24.15
2022-12-03T04:13:15.506Z,23.98
2022-12-03T04:15:42.770Z,26.67
2022-12-03T04:18:29.016Z,23.65
2022-12-03T04:21:16.330Z,25.95
2022-12-03T04:23:43.825Z,24.45
2022-12-03T04:26:29.867Z,25.00
2022-12-03T04:28:57.554Z,22.50
2022-12-03T04:31:43.439Z,23.75
2022-12-03T04:34:30.487Z,27.90
2022-12-03T04:36:57.953Z,23.75
2022-12-03T04:39:25.447Z,26.35
2022-12-03T04:41:52.878Z,29.20
2022-12-03T04:44:38.376Z,29.60
2022-12-03T04:47:15.924Z,24.58
2022-12-03T04:49:44.457Z,28.27
2022-12-03T04:52:12.387Z,26.30
2022-12-03T04:54:39.873Z,28.48
2022-12-03T04:57:08.249Z,30.00
2022-12-03T04:59:36.161Z,29.02
2022-12-03T05:02:03.927Z,26.38
2022-12-03T05:04:31.301Z,27.08
2022-12-03T05:06:58.510Z,26.35
2022-12-03T05:09:25.992Z,25.05
2022-12-03T05:11:53.458Z,27.45
2022-12-03T05:14:20.795Z,30.00
2022-12-03T05:16:48.228Z,27.42
2022-12-03T05:19:15.701Z,27.58
2022-12-03T05:21:42.915Z,28.02
2022-12-03T05:24:10.481Z,28.40
2022-12-03T05:26:37.795Z,25.48
2022-12-03T05:29:05.136Z,27.30
2022-12-03T05:31:32.480Z,24.63
2022-12-03T05:33:59.961Z,25.35
2022-12-03T05:36:27.330Z,28.48
2022-12-03T05:38:54.745Z,28.90
2022-12-03T05:41:41.035Z,27.27
2022-12-03T05:44:08.542Z,28.20
2022-12-03T05:46:35.874Z,29.23
2022-12-03T05:49:03.232Z,27.67
2022-12-03T05:51:30.643Z,24.85
2022-12-03T05:53:58.032Z,27.15
2022-12-03T05:56:25.217Z,28.60
2022-12-03T05:58:52.510Z,25.85
2022-12-03T06:01:21.956Z,29.23
2022-12-03T06:03:49.436Z,25.40
2022-12-03T06:06:17.122Z,27.85
2022-12-03T06:08:44.467Z,29.33
2022-12-03T06:11:11.717Z,25.13
2022-12-03T06:13:39.135Z,28.77
2022-12-03T06:16:06.624Z,26.58
2022-12-03T06:18:34.031Z,29.88
2022-12-03T06:21:01.309Z,26.48
2022-12-03T06:23:28.683Z,28.05
2022-12-03T06:25:55.960Z,27.33
2022-12-03T06:28:23.349Z,25.23
2022-12-03T06:30:50.747Z,25.20
2022-12-03T06:33:18.089Z,26.42
2022-12-03T06:35:45.395Z,26.17
2022-12-03T06:38:12.714Z,25.58
2022-12-03T06:40:39.933Z,29.80
2022-12-03T06:43:07.917Z,28.98
2022-12-03T06:45:35.190Z,24.38
2022-12-03T06:48:02.443Z,26.38
2022-12-03T06:50:29.792Z,28.65
2022-12-03T06:52:57.195Z,24.25
2022-12-03T06:55:24.550Z,28.05
2022-12-03T06:57:51.929Z,28.90
2022-12-03T07:00:19.502Z,26.90
2022-12-03T07:02:46.866Z,28.98
2022-12-03T07:05:14.404Z,25.85
2022-12-03T07:07:41.815Z,27.50
2022-12-03T07:10:09.287Z,25.80
2022-12-03T07:12:36.754Z,27.60
2022-12-03T07:15:04.073Z,28.55
2022-12-03T07:17:31.341Z,27.40
2022-12-03T07:19:58.656Z,28.63
2022-12-03T07:22:26.043Z,26.38
2022-12-03T07:24:53.551Z,27.35
2022-12-03T07:27:21.119Z,29.58
2022-12-03T07:29:48.396Z,28.67
2022-12-03T07:32:15.663Z,29.85
2022-12-03T07:34:43.005Z,28.58
2022-12-03T07:37:10.376Z,27.33
2022-12-03T07:39:37.684Z,27.63
2022-12-03T07:42:05.060Z,25.83
2022-12-03T07:44:33.121Z,27.20
2022-12-03T07:47:00.535Z,27.02
2022-12-03T07:49:28.002Z,27.27
2022-12-03T07:51:56.824Z,26.08
2022-12-03T07:54:24.991Z,26.13
2022-12-03T07:56:56.681Z,25.25
2022-12-03T07:59:28.378Z,25.45
2022-12-03T08:01:55.781Z,27.75
2022-12-03T08:04:23.161Z,24.27
2022-12-03T08:06:50.454Z,29.30
2022-12-03T08:09:17.855Z,28.35
2022-12-03T08:11:47.648Z,26.38
2022-12-03T08:14:16.015Z,27.15
2022-12-03T08:16:44.552Z,30.50
2022-12-03T08:19:12.655Z,27.70
2022-12-03T08:21:40.539Z,26.45
2022-12-03T08:24:15.679Z,35.20
2022-12-03T08:26:46.761Z,31.75
2022-12-03T08:29:15.948Z,27.45
2022-12-03T08:31:43.816Z,21.98
2022-12-03T08:34:17.751Z,23.65
2022-12-03T08:36:45.522Z,24.70
2022-12-03T08:39:31.279Z,24.60
2022-12-03T08:42:32.422Z,26.15
2022-12-03T08:45:18.347Z,24.88
2022-12-03T08:47:45.776Z,22.10
2022-12-03T08:50:25.198Z,23.23
2022-12-03T08:52:54.245Z,24.20
2022-12-03T08:55:37.885Z,25.48
2022-12-03T08:58:21.222Z,24.13
2022-12-03T09:00:48.889Z,25.48
2022-12-03T09:03:19.241Z,21.35
2022-12-03T09:05:46.925Z,21.95
2022-12-03T09:08:14.205Z,24.42
2022-12-03T09:10:41.546Z,26.85
2022-12-03T09:13:09.306Z,23.15
2022-12-03T09:15:36.663Z,25.55
2022-12-03T09:18:03.919Z,21.20
2022-12-03T09:20:31.405Z,24.63
2022-12-03T09:22:58.656Z,21.17
2022-12-03T09:25:25.888Z,24.95
2022-12-03T09:27:53.300Z,25.85
2022-12-03T09:30:20.760Z,24.63
2022-12-03T09:32:47.964Z,24.98
2022-12-03T09:35:15.433Z,25.17
2022-12-03T09:37:42.654Z,27.63
2022-12-03T09:40:10.400Z,24.52
2022-12-03T09:42:38.316Z,24.73
2022-12-03T09:45:10.761Z,22.75
2022-12-03T09:47:38.549Z,25.23
2022-12-03T09:50:06.240Z,23.58
2022-12-03T09:52:34.860Z,27.15
2022-12-03T09:55:06.310Z,24.02
2022-12-03T09:57:33.795Z,25.92
2022-12-03T10:00:01.022Z,27.60
2022-12-03T10:02:29.874Z,25.80
2022-12-03T10:04:57.985Z,26.30
2022-12-03T10:07:25.610Z,25.17
2022-12-03T10:09:53.235Z,25.27
2022-12-03T10:12:23.269Z,25.92
2022-12-03T10:14:50.790Z,24.35
2022-12-03T10:17:18.293Z,27.98
2022-12-03T10:19:45.818Z,25.25
2022-12-03T10:22:13.160Z,25.33
2022-12-03T10:24:40.780Z,24.98
2022-12-03T10:27:25.191Z,27.48
2022-12-03T10:30:00.030Z,26.23
2022-12-03T10:32:47.780Z,27.10
2022-12-03T10:35:20.099Z,27.42
2022-12-03T10:38:00.990Z,28.52
2022-12-03T10:40:31.056Z,27.27
2022-12-03T10:43:17.455Z,28.75
2022-12-03T10:45:45.588Z,28.70
2022-12-03T10:48:15.938Z,26.05
2022-12-03T10:50:53.618Z,26.27
2022-12-03T10:53:22.799Z,28.52
2022-12-03T10:55:51.342Z,27.25
2022-12-03T10:58:25.584Z,26.85
2022-12-03T11:00:54.178Z,27.85
2022-12-03T11:03:23.052Z,27.20
2022-12-03T11:05:50.788Z,27.65
2022-12-03T11:08:20.861Z,27.02
2022-12-03T11:11:04.857Z,27.20
2022-12-03T11:13:34.872Z,25.73
2022-12-03T11:16:03.184Z,31.50
2022-12-03T11:18:39.635Z,29.48
2022-12-03T11:21:07.052Z,28.00
2022-12-03T11:24:00.554Z,26.65
2022-12-03T11:26:27.973Z,27.05
2022-12-03T11:29:00.579Z,29.27
2022-12-03T11:31:33.895Z,26.58
2022-12-03T11:34:19.697Z,27.17
2022-12-03T11:37:05.902Z,25.90
2022-12-03T11:39:45.610Z,24.92
2022-12-03T11:42:26.311Z,29.52
2022-12-03T11:45:05.672Z,26.95
2022-12-03T11:47:34.302Z,27.75
2022-12-03T11:50:01.742Z,29.60
2022-12-03T11:52:31.229Z,28.48
2022-12-03T11:55:01.151Z,30.30
2022-12-03T11:57:36.437Z,28.10
2022-12-03T12:00:30.401Z,27.08
2022-12-03T12:02:58.874Z,29.67
2022-12-03T12:05:28.701Z,25.90
2022-12-03T12:07:56.435Z,28.23
2022-12-03T12:10:57.709Z,28.35
2022-12-03T12:13:27.979Z,27.90
2022-12-03T12:16:11.104Z,25.50
2022-12-03T12:18:40.046Z,28.90
2022-12-03T12:21:25.857Z,25.70
2022-12-03T12:23:53.161Z,25.50
2022-12-03T12:26:20.435Z,28.52
2022-12-03T12:28:47.691Z,30.63
2022-12-03T12:31:14.999Z,26.40
2022-12-03T12:33:42.440Z,27.10
2022-12-03T12:36:09.912Z,27.70
2022-12-03T12:38:37.545Z,27.27
2022-12-03T12:41:08.286Z,27.88
2022-12-03T12:43:36.089Z,26.25
2022-12-03T12:46:39.092Z,28.10
2022-12-03T12:49:00.020Z,26.65
2022-12-03T12:51:27.587Z,26.88
2022-12-03T12:53:54.990Z,28.15
2022-12-03T12:56:26.282Z,26.40
2022-12-03T12:58:54.102Z,27.92
2022-12-03T13:01:33.596Z,28.48
2022-12-03T13:04:01.194Z,32.78
2022-12-03T13:06:29.712Z,31.30
2022-12-03T13:08:58.151Z,27.13
2022-12-03T13:11:25.396Z,28.40
2022-12-03T13:13:53.226Z,28.95
2022-12-03T13:16:31.505Z,29.08
2022-12-03T13:18:59.798Z,29.65
2022-12-03T13:21:40.894Z,30.10
2022-12-03T13:24:29.990Z,27.38
2022-12-03T13:26:57.853Z,30.27
2022-12-03T13:29:26.344Z,31.88
2022-12-03T13:31:55.492Z,31.20
2022-12-03T13:34:24.706Z,28.83
2022-12-03T13:36:57.423Z,31.00
2022-12-03T13:39:38.438Z,27.17
2022-12-03T13:42:27.453Z,29.13
2022-12-03T13:44:55.109Z,31.27
2022-12-03T13:47:23.315Z,29.75
2022-12-03T13:49:54.879Z,30.73
2022-12-03T13:52:24.009Z,32.30
2022-12-03T13:54:52.553Z,34.47
2022-12-03T13:57:20.166Z,35.88
2022-12-03T13:59:47.847Z,34.05
2022-12-03T14:02:15.380Z,30.67
2022-12-03T14:04:42.733Z,36.35
2022-12-03T14:07:10.356Z,26.55
2022-12-03T14:09:37.610Z,30.23
2022-12-03T14:12:23.987Z,34.05
2022-12-03T14:14:51.517Z,26.90
2022-12-03T14:17:18.776Z,30.13
2022-12-03T14:19:46.221Z,27.77
2022-12-03T14:22:13.503Z,32.13
2022-12-03T14:24:40.846Z,32.22
2022-12-03T14:27:08.269Z,28.85
2022-12-03T14:29:35.632Z,35.33
2022-12-03T14:32:03.098Z,32.08
2022-12-03T14:34:30.533Z,30.65
2022-12-03T14:36:57.825Z,29.83
2022-12-03T14:39:25.992Z,31.52
2022-12-03T14:42:12.140Z,32.28
2022-12-03T14:44:39.879Z,31.23
2022-12-03T14:47:07.133Z,33.70
2022-12-03T14:49:34.971Z,34.17
2022-12-03T14:52:02.465Z,34.55
2022-12-03T14:54:30.210Z,36.80
2022-12-03T14:56:57.586Z,32.97
2022-12-03T14:59:27.907Z,35.25
2022-12-03T15:01:56.053Z,35.05
2022-12-03T15:04:23.605Z,30.75
2022-12-03T15:06:51.159Z,37.05
2022-12-03T15:09:18.512Z,40.55
2022-12-03T15:11:46.750Z,35.35
2022-12-03T15:14:17.374Z,34.15
2022-12-03T15:16:44.769Z,32.90
2022-12-03T15:19:14.639Z,33.03
2022-12-03T15:21:42.019Z,33.67
2022-12-03T15:24:10.432Z,32.92
2022-12-03T15:26:37.885Z,35.28
2022-12-03T15:29:05.214Z,33.35
2022-12-03T15:31:32.651Z,35.47
2022-12-03T15:34:02.529Z,37.28
2022-12-03T15:36:29.893Z,32.80
2022-12-03T15:38:57.686Z,35.92
2022-12-03T15:41:29.246Z,37.03
2022-12-03T15:43:58.386Z,47.28
2022-12-03T15:46:27.712Z,38.08
2022-12-03T15:48:55.708Z,37.55
2022-12-03T15:51:23.081Z,36.72
2022-12-03T15:53:50.862Z,42.88
2022-12-03T15:56:18.245Z,35.25
2022-12-03T15:58:45.639Z,43.00
2022-12-03T16:01:13.846Z,42.63
2022-12-03T16:03:41.931Z,37.42
2022-12-03T16:06:09.484Z,41.80
2022-12-03T16:08:36.891Z,43.55
2022-12-03T16:11:05.997Z,43.92
2022-12-03T16:13:34.328Z,41.60
2022-12-03T16:16:01.557Z,40.63
2022-12-03T16:18:29.053Z,40.25
2022-12-03T16:20:56.443Z,40.03
2022-12-03T16:23:23.836Z,29.65
2022-12-03T16:25:51.145Z,30.52
2022-12-03T16:28:18.623Z,35.55
2022-12-03T16:30:45.967Z,31.13
2022-12-03T16:33:13.723Z,30.92
2022-12-03T16:35:41.064Z,34.28
2022-12-03T16:38:08.559Z,33.08
2022-12-03T16:40:35.947Z,28.58
2022-12-03T16:43:04.743Z,32.83
2022-12-03T16:45:51.191Z,35.00
2022-12-03T16:48:19.295Z,33.30
2022-12-03T16:50:46.665Z,34.83
2022-12-03T16:53:14.504Z,36.13
2022-12-03T16:55:41.925Z,33.30
2022-12-03T16:58:09.254Z,30.13
2022-12-03T17:00:36.731Z,33.30
2022-12-03T17:03:04.174Z,40.72
2022-12-03T17:05:31.649Z,40.17
2022-12-03T17:07:59.228Z,37.47
2022-12-03T17:10:26.563Z,35.05
2022-12-03T17:13:10.387Z,35.78
2022-12-03T17:15:38.572Z,36.67
2022-12-03T17:18:06.105Z,35.00
2022-12-03T17:20:35.488Z,35.85
2022-12-03T17:23:03.050Z,36.97
2022-12-03T17:25:30.927Z,37.10
2022-12-03T17:27:58.239Z,32.30
2022-12-03T17:30:25.753Z,30.48
2022-12-03T17:32:53.026Z,31.92
2022-12-03T17:35:23.480Z,31.15
2022-12-03T17:37:50.872Z,34.45
2022-12-03T17:40:18.325Z,33.28
2022-12-03T17:42:45.739Z,32.55
2022-12-03T17:45:13.591Z,36.22
2022-12-03T17:47:40.930Z,33.00
2022-12-03T17:50:08.931Z,31.50
2022-12-03T17:52:36.725Z,34.65
2022-12-03T17:55:17.626Z,33.22
2022-12-03T17:57:51.544Z,30.30
2022-12-03T18:00:19.041Z,33.15
2022-12-03T18:02:46.573Z,30.55
2022-12-03T18:05:14.425Z,30.95
2022-12-03T18:07:41.801Z,28.90
2022-12-03T18:10:09.291Z,34.28
2022-12-03T18:12:36.791Z,36.70
2022-12-03T18:15:04.372Z,30.15
2022-12-03T18:17:31.676Z,32.47
2022-12-03T18:19:59.133Z,32.88
2022-12-03T18:22:27.713Z,32.13
2022-12-03T18:24:56.088Z,33.20
2022-12-03T18:27:24.090Z,31.48
2022-12-03T18:29:51.830Z,32.75
2022-12-03T18:32:29.168Z,34.40
2022-12-03T18:34:57.453Z,32.83
2022-12-03T18:37:27.059Z,31.38
2022-12-03T18:39:55.160Z,31.63
2022-12-03T18:42:23.649Z,28.02
2022-12-03T18:44:52.166Z,36.75
2022-12-03T18:47:20.975Z,34.75
2022-12-03T18:49:48.463Z,33.92
2022-12-03T18:52:16.966Z,33.55
2022-12-03T18:54:44.793Z,33.95
2022-12-03T18:57:12.139Z,35.53
2022-12-03T18:59:39.698Z,36.15
2022-12-03T19:02:08.227Z,32.20
2022-12-03T19:04:35.922Z,34.15
2022-12-03T19:07:03.800Z,34.28
2022-12-03T19:09:31.120Z,32.22
2022-12-03T19:11:59.064Z,32.58
2022-12-03T19:14:26.419Z,35.10
2022-12-03T19:16:53.773Z,32.42
2022-12-03T19:19:27.388Z,35.40
2022-12-03T19:21:55.009Z,34.95
2022-12-03T19:24:25.176Z,36.45
2022-12-03T19:26:55.531Z,32.55
2022-12-03T19:29:26.108Z,35.80
2022-12-03T19:31:53.957Z,31.42
2022-12-03T19:34:21.503Z,31.27
2022-12-03T19:36:48.926Z,35.10
2022-12-03T19:39:18.699Z,33.50
2022-12-03T19:41:46.155Z,35.70
2022-12-03T19:44:14.529Z,33.67
2022-12-03T19:46:42.403Z,33.58
2022-12-03T19:49:10.163Z,36.85
2022-12-03T19:51:38.043Z,34.50
2022-12-03T19:54:06.516Z,35.85
2022-12-03T19:56:34.439Z,31.58
2022-12-03T19:59:01.778Z,37.58
2022-12-03T20:01:30.245Z,37.17
2022-12-03T20:03:58.741Z,39.33
2022-12-03T20:06:27.347Z,39.38
2022-12-03T20:09:02.288Z,34.92
2022-12-03T20:11:30.659Z,38.83
2022-12-03T20:13:58.998Z,36.20
2022-12-03T20:16:27.123Z,39.28
2022-12-03T20:18:58.765Z,40.60
2022-12-03T20:21:26.171Z,38.50
2022-12-03T20:23:53.980Z,38.35
2022-12-03T20:26:21.815Z,37.10
2022-12-03T20:28:51.902Z,35.53
2022-12-03T20:31:20.629Z,39.63
2022-12-03T20:33:49.553Z,34.78
2022-12-03T20:36:18.065Z,37.22
2022-12-03T20:38:45.636Z,39.72
2022-12-03T20:41:16.279Z,38.67
2022-12-03T20:43:43.764Z,39.03
2022-12-03T20:46:12.221Z,40.92
2022-12-03T20:48:39.685Z,32.58
2022-12-03T20:51:07.956Z,39.50
2022-12-03T20:53:35.399Z,40.03
2022-12-03T20:56:03.235Z,33.30
2022-12-03T20:58:30.874Z,42.60
2022-12-03T21:01:13.897Z,37.17
2022-12-03T21:03:43.084Z,36.08
2022-12-03T21:06:10.508Z,42.75
2022-12-03T21:08:41.547Z,32.67
2022-12-03T21:11:12.585Z,38.05
2022-12-03T21:13:41.698Z,37.60
2022-12-03T21:16:10.377Z,37.80
2022-12-03T21:18:38.381Z,36.30
2022-12-03T21:21:06.244Z,38.45
2022-12-03T21:23:34.039Z,36.58
2022-12-03T21:26:05.496Z,43.78
2022-12-03T21:28:32.777Z,35.92
2022-12-03T21:31:01.525Z,34.17
2022-12-03T21:33:29.263Z,37.78
2022-12-03T21:35:56.804Z,33.78
2022-12-03T21:38:26.153Z,41.33
2022-12-03T21:40:53.617Z,40.85
2022-12-03T21:43:20.931Z,39.13
2022-12-03T21:45:48.373Z,41.22
2022-12-03T21:48:15.919Z,39.33
2022-12-03T21:50:43.389Z,39.58
2022-12-03T21:53:10.985Z,37.80
2022-12-03T21:55:41.763Z,37.72
2022-12-03T21:58:09.893Z,39.92
2022-12-03T22:00:37.141Z,41.83
2022-12-03T22:03:04.743Z,43.53
2022-12-03T22:05:32.068Z,34.25
2022-12-03T22:07:59.404Z,36.33
2022-12-03T22:10:26.781Z,41.85
2022-12-03T22:12:54.048Z,41.47
2022-12-03T22:15:21.544Z,38.50
2022-12-03T22:17:49.404Z,40.38
2022-12-03T22:20:16.731Z,42.60
2022-12-03T22:22:44.048Z,43.25
2022-12-03T22:25:11.677Z,47.60
2022-12-03T22:27:39.065Z,41.45
2022-12-03T22:30:06.670Z,42.88
2022-12-03T22:32:34.143Z,41.90
2022-12-03T22:35:01.341Z,42.80
2022-12-03T22:37:28.738Z,40.63
2022-12-03T22:39:56.369Z,41.20
2022-12-03T22:42:24.019Z,44.13
2022-12-03T22:44:51.284Z,41.10
2022-12-03T22:47:18.675Z,43.00
2022-12-03T22:49:45.869Z,44.97
2022-12-03T22:52:13.178Z,43.53
2022-12-03T22:54:40.671Z,43.88
2022-12-03T22:57:09.509Z,46.80
2022-12-03T22:59:36.770Z,42.90
2022-12-03T23:02:04.507Z,42.13
2022-12-03T23:04:31.716Z,43.92
2022-12-03T23:06:59.263Z,48.28
2022-12-03T23:09:26.731Z,44.67
2022-12-03T23:11:54.261Z,42.55
2022-12-03T23:14:21.847Z,43.63
2022-12-03T23:16:49.307Z,47.47
2022-12-03T23:19:19.818Z,47.70
2022-12-03T23:21:47.342Z,37.05
2022-12-03T23:24:14.696Z,44.95
2022-12-03T23:26:41.985Z,42.97
2022-12-03T23:29:09.235Z,41.55
2022-12-03T23:31:36.849Z,43.58
2022-12-03T23:34:04.560Z,46.25
2022-12-03T23:36:33.097Z,44.65
2022-12-03T23:39:00.571Z,43.55
2022-12-03T23:41:28.070Z,41.97
2022-12-03T23:43:55.502Z,39.80
2022-12-03T23:46:24.367Z,48.70
2022-12-03T23:48:52.160Z,45.38
2022-12-03T23:51:24.399Z,42.92
2022-12-03T23:53:53.194Z,43.05
2022-12-03T23:56:22.088Z,41.60
2022-12-03T23:58:49.561Z,42.05
